Data for 06/15/2008

Time Sea-Level Adjusted Pressure Absolute Pressure Temperature Relative Humidity Dew Point   
(mb) (inHg) (mb) (inHg) (C) (F) (%) (C) (F)
00:05 1020 30.12 849 25.07 10.6 51 55 2 35.6
00:10 1020 30.12 849 25.07 10.8 51.4 54 2 35.5
00:15 1020 30.12 849 25.07 10.8 51.4 53 1.6 35
00:20 1020 30.12 849 25.07 10.9 51.6 53 1.6 35
00:25 1020 30.12 849 25.07 10.9 51.6 52 1.5 34.8
00:30 1020 30.12 849 25.07 11 51.7 53 1.7 35.1
00:35 1020 30.12 849 25.07 10.9 51.6 53 1.8 35.2
00:40 1020 30.12 849 25.07 10.7 51.3 55 2 35.7
00:45 1020 30.12 849 25.07 10.3 50.6 57 2.3 36.1
00:50 1020 30.12 849 25.07 9.7 49.5 60 2.4 36.2
00:55 1020 30.12 849 25.07 9.4 49 59 2 35.5
01:00 1020 30.12 849 25.07 9.6 49.3 58 1.8 35.3
01:05 1020 30.12 849 25.07 9.7 49.5 57 1.7 35
01:10 1020 30.12 849 25.07 9.7 49.5 57 1.8 35.2
01:15 1020 30.12 850 25.1 9.6 49.3 59 1.9 35.4
01:20 1020 30.12 850 25.1 9.4 48.9 59 1.9 35.4
01:25 1020 30.12 850 25.1 9.5 49.1 60 2 35.7
01:30 1020 30.12 849 25.07 9.5 49.2 60 2.2 36
01:35 1020 30.12 849 25.07 9.5 49 61 2.4 36.2
01:40 1020 30.12 849 25.07 9.5 49.1 62 2.5 36.5
01:45 1020 30.12 849 25.07 9.4 49 63 2.9 37.2
01:50 1020 30.12 849 25.07 9.3 48.7 65 3.1 37.6
01:55 1020 30.12 849 25.07 9.5 49 65 3.2 37.8
02:00 1020 30.12 849 25.07 9.5 49.1 67 3.6 38.5
02:05 1020 30.12 849 25.07 9.3 48.7 67 3.5 38.3
02:10 1020 30.12 849 25.07 9 48.1 70 3.7 38.7
02:15 1020 30.12 849 25.07 8.8 47.9 69 3.6 38.5
02:20 1020 30.12 849 25.07 8.9 48.1 68 3.5 38.3
02:25 1020 30.12 849 25.07 8.8 47.9 69 3.5 38.4
02:30 1020 30.12 849 25.07 8.8 47.8 69 3.5 38.3
02:35 1020 30.12 849 25.07 9 48.2 68 3.5 38.3
02:40 1020 30.12 849 25.07 9.2 48.5 69 3.7 38.7
02:45 1020 30.12 849 25.07 9 48.3 69 3.7 38.6
02:50 1020 30.12 849 25.07 9 48.2 70 3.8 38.8
02:55 1020 30.12 849 25.07 9 48.1 70 3.8 38.9
03:00 1020 30.12 849 25.07 8.8 47.9 72 4 39.1
03:05 1020 30.12 849 25.07 8.7 47.6 70 3.6 38.4
03:10 1020 30.12 849 25.07 8.6 47.4 69 3.3 37.9
03:15 1020 30.12 849 25.07 8.6 47.4 70 3.3 38
03:20 1020 30.12 849 25.07 8.5 47.3 70 3.3 37.9
03:25 1020 30.12 849 25.07 8.5 47.2 70 3.4 38.1
03:30 1020 30.12 849 25.07 8.3 46.9 72 3.5 38.4
03:35 1020 30.12 849 25.07 7.9 46.3 74 3.5 38.3
03:40 1020 30.12 849 25.07 7.8 46.1 74 3.5 38.3
03:45 1020 30.12 849 25.07 7.8 46 75 3.6 38.5
03:50 1020 30.12 849 25.07 7.8 46 76 3.8 38.8
03:55 1020 30.12 849 25.07 7.8 46 76 3.8 38.9
04:00 1020 30.12 849 25.07 7.7 45.8 76 3.6 38.6
04:05 1020 30.12 849 25.07 7.6 45.6 76 3.6 38.6
04:10 1020 30.12 849 25.07 7.6 45.6 77 3.8 38.8
04:15 1020 30.12 849 25.07 7.8 46 77 3.9 39.1
04:20 1020 30.12 849 25.07 8.3 46.9 76 4.2 39.6
04:25 1020 30.12 849 25.07 8.7 47.7 74 4.4 39.9
04:30 1020 30.12 849 25.07 8.8 47.8 74 4.4 40
04:35 1020 30.12 849 25.07 9 48.1 73 4.4 39.9
04:40 1020 30.12 849 25.07 9.4 48.9 71 4.4 40
04:45 1020 30.12 849 25.07 9.6 49.2 71 4.6 40.2
04:50 1020 30.12 849 25.07 9.7 49.4 71 4.6 40.2
04:55 1020 30.12 849 25.07 9.5 49 71 4.4 40
05:00 1020 30.12 849 25.07 9.5 49.1 70 4.3 39.8
05:05 1020 30.12 849 25.07 9.6 49.2 69 4.2 39.6
05:10 1020 30.12 849 25.07 9.7 49.4 69 4.2 39.6
05:15 1020 30.12 849 25.07 9.6 49.4 69 4.2 39.6
05:20 1020 30.12 849 25.07 9.6 49.3 69 4.2 39.6
05:25 1020 30.12 849 25.07 9.6 49.3 69 4.2 39.5
05:30 1020 30.12 849 25.07 9.6 49.2 69 4.3 39.7
05:35 1020 30.12 849 25.07 9.4 48.9 70 4.3 39.8
05:40 1020 30.12 849 25.07 9.3 48.8 71 4.3 39.7
05:45 1020 30.12 849 25.07 9.2 48.6 71 4.3 39.8
05:50 1020 30.12 849 25.07 9.1 48.4 72 4.3 39.7
05:55 1020 30.12 849 25.07 9.1 48.5 71 4.3 39.7
06:00 1020 30.12 849 25.07 9.3 48.7 71 4.4 39.9
06:05 1020 30.12 849 25.07 9.2 48.6 72 4.4 40
06:10 1020 30.12 849 25.07 9.3 48.8 71 4.4 39.9
06:15 1020 30.12 849 25.07 9.5 49 70 4.4 39.9
06:20 1020 30.12 849 25.07 9.6 49.3 70 4.4 39.9
06:25 1020 30.12 849 25.07 9.7 49.5 70 4.5 40
06:30 1020 30.12 849 25.07 9.8 49.6 70 4.5 40.1
06:35 1020 30.12 849 25.07 9.8 49.7 69 4.5 40.2
06:40 1020 30.12 849 25.07 9.9 49.7 70 4.7 40.4
06:45 1020 30.12 849 25.07 9.9 49.7 70 4.7 40.5
06:50 1020 30.12 849 25.07 9.8 49.7 70 4.7 40.5
06:55 1020 30.12 849 25.07 9.9 49.8 70 4.8 40.6
07:00 1020 30.12 849 25.07 10 50 70 4.9 40.8
07:05 1020 30.12 850 25.1 10 50.1 70 4.9 40.9
07:10 1020 30.12 850 25.1 10.1 50.2 70 4.9 40.8
07:15 1020 30.12 850 25.1 10.3 50.5 70 5.1 41.2
07:20 1020 30.12 850 25.1 10.4 50.8 69 5.1 41.2
07:25 1020 30.12 850 25.1 10.6 51 69 5.2 41.3
07:30 1020 30.12 850 25.1 10.7 51.3 69 5.4 41.7
07:35 1020 30.12 849 25.07 10.9 51.7 69 5.4 41.8
07:40 1020 30.12 849 25.07 11.2 52.2 67 5.4 41.8
07:45 1020 30.12 849 25.07 11.2 52.2 67 5.3 41.6
07:50 1020 30.12 849 25.07 11.5 52.6 67 5.5 41.9
07:55 1020 30.12 849 25.07 11.7 53.1 65 5.3 41.6
08:00 1020 30.12 849 25.07 11.9 53.5 63 5.3 41.5
08:05 1020 30.12 849 25.07 12.2 53.9 63 5.3 41.6
08:10 1020 30.12 849 25.07 12.5 54.5 62 5.5 42
08:15 1020 30.12 849 25.07 12.5 54.6 63 5.8 42.4
08:20 1020 30.12 849 25.07 12.7 54.9 63 5.9 42.6
08:25 1020 30.12 849 25.07 13.2 55.7 61 5.8 42.5
08:30 1020 30.12 849 25.07 13.1 55.5 62 5.9 42.6
08:35 1020 30.12 849 25.07 13.2 55.8 61 5.9 42.6
08:40 1020 30.12 849 25.07 13.6 56.4 60 5.9 42.6
08:45 1020 30.12 849 25.07 13.4 56.2 60 5.8 42.4
08:50 1020 30.12 849 25.07 13.7 56.7 58 5.6 42
08:55 1020 30.12 849 25.07 13.9 57.1 57 5.7 42.3
09:00 1020 30.12 849 25.07 14 57.2 58 5.9 42.6
09:05 1020 30.12 849 25.07 14.3 57.7 56 5.6 42.1
09:10 1020 30.12 849 25.07 14.6 58.3 56 6 42.8
09:15 1020 30.12 849 25.07 14.8 58.6 54 5.7 42.2
09:20 1020 30.12 849 25.07 14.9 58.8 54 5.8 42.5
09:25 1020 30.12 849 25.07 14.7 58.5 54 5.6 42.1
09:30 1020 30.12 849 25.07 15 59.1 54 5.9 42.6
09:35 1020 30.12 849 25.07 15.3 59.5 52 5.5 42
09:40 1020 30.12 849 25.07 15.6 60.1 51 5.6 42.2
09:45 1020 30.12 849 25.07 16 60.8 50 5.6 42
09:50 1020 30.12 849 25.07 15.8 60.5 51 5.8 42.5
09:55 1020 30.12 849 25.07 15.7 60.2 51 5.6 42.1
10:00 1020 30.12 849 25.07 15.4 59.7 51 5.4 41.8
10:05 1020 30.12 849 25.07 15.7 60.2 50 5.4 41.7
10:10 1020 30.12 849 25.07 16.2 61.2 49 5.6 42.1
10:15 1020 30.12 849 25.07 16.1 60.9 49 5.5 41.8
10:20 1020 30.12 849 25.07 16.1 61 48 5.3 41.5
10:25 1020 30.12 849 25.07 15.9 60.6 49 5.3 41.5
10:30 1020 30.12 849 25.07 15.8 60.4 49 5.3 41.5
10:35 1020 30.12 849 25.07 16.7 62 45 4.9 40.8
10:40 1020 30.12 849 25.07 16.8 62.2 42 4 39.3
10:45 1020 30.12 849 25.07 17 62.6 39 3 37.3
10:50 1020 30.12 849 25.07 16.7 62 39 2.7 36.8
10:55 1020 30.12 849 25.07 16.5 61.7 33 0.4 32.7
11:00 1020 30.12 849 25.07 17 62.6 34 1.2 34.2
11:05 1020 30.12 849 25.07 17.4 63.4 33 1.3 34.4
11:10 1020 30.12 849 25.07 17.7 63.8 33 1.4 34.5
11:15 1020 30.12 849 25.07 17.4 63.4 35 2 35.6
11:20 1020 30.12 849 25.07 17.3 63.1 39 3.2 37.8
11:25 1020 30.12 849 25.07 17.7 63.8 37 2.8 37.1
11:30 1020 30.12 849 25.07 18.6 65.5 35 3.2 37.7
11:35 1020 30.12 849 25.07 19 66.2 35 3.2 37.8
11:40 1020 30.12 849 25.07 19.2 66.5 35 3.3 38
11:45 1020 30.12 849 25.07 18.7 65.7 35 3 37.4
11:50 1020 30.12 849 25.07 18.2 64.8 37 3.4 38.2
11:55 1020 30.12 849 25.07 18.6 65.4 34 2.7 36.9
12:00 1020 30.12 849 25.07 19 66.2 33 2.4 36.3
12:05 1020 30.12 849 25.07 19 66.1 32 2.3 36.1
12:10 1020 30.12 849 25.07 20.1 68.1 31 2.4 36.4
12:15 1020 30.12 849 25.07 20.6 69 30 2.3 36.2
12:20 1020 30.12 849 25.07 20.7 69.2 29 2.2 36
12:25 1020 30.12 849 25.07 20.7 69.2 31 3.1 37.6
12:30 1019 30.09 849 25.07 20.9 69.7 29 2.4 36.4
12:35 1019 30.09 849 25.07 20.9 69.6 28 2.1 35.8
12:40 1019 30.09 849 25.07 20.5 69 28 1.4 34.5
12:45 1019 30.09 849 25.07 19.6 67.3 25 -0.9 30.4
12:50 1019 30.09 849 25.07 19.4 66.9 25 -0.9 30.3
12:55 1019 30.09 849 25.07 19.2 66.6 25 -1.4 29.5
13:00 1019 30.09 849 25.07 19.5 67.1 25 -1 30.2
13:05 1019 30.09 849 25.07 20.3 68.5 27 0.9 33.7
13:10 1019 30.09 849 25.07 20.6 69 25 0.2 32.3
13:15 1019 30.09 849 25.07 20 68 24 -1.2 29.8
13:20 1019 30.09 849 25.07 19.7 67.4 23 -1.7 29
13:25 1019 30.09 848 25.04 19.7 67.5 25 -0.6 31
13:30 1019 30.09 848 25.04 20.4 68.8 24 -0.6 30.9
13:35 1019 30.09 848 25.04 20.9 69.7 22 -1.5 29.2
13:40 1019 30.09 848 25.04 21.1 69.9 23 -0.5 31.1
13:45 1019 30.09 848 25.04 21.2 70.1 21 -1.6 29.2
13:50 1019 30.09 848 25.04 20.9 69.7 23 -1 30.3
13:55 1019 30.09 848 25.04 21.1 69.9 23 -0.6 30.9
14:00 1019 30.09 848 25.04 21.2 70.2 23 -0.8 30.5
14:05 1019 30.09 848 25.04 21.2 70.2 22 -1.1 29.9
14:10 1019 30.09 848 25.04 21.4 70.6 22 -0.7 30.7
14:15 1019 30.09 848 25.04 20.6 69 24 -0.8 30.5
14:20 1019 30.09 848 25.04 20.9 69.7 23 -0.7 30.8
14:25 1019 30.09 848 25.04 21.2 70.1 22 -1.2 29.9
14:30 1019 30.09 848 25.04 20.4 68.6 24 -0.8 30.6
14:35 1019 30.09 848 25.04 20.4 68.7 23 -1.2 29.9
14:40 1019 30.09 848 25.04 20.7 69.3 25 0 32
14:45 1019 30.09 848 25.04 22 71.6 23 0.1 32.2
14:50 1019 30.09 848 25.04 22.3 72.2 23 0.2 32.4
14:55 1019 30.09 848 25.04 22.4 72.3 23 0.4 32.7
15:00 1019 30.09 848 25.04 22.5 72.4 23 0.3 32.6
15:05 1019 30.09 848 25.04 21.6 70.8 23 -0.6 31
15:10 1019 30.09 848 25.04 21.5 70.8 23 -0.6 31
15:15 1019 30.09 848 25.04 22 71.6 23 -0.2 31.7
15:20 1019 30.09 848 25.04 21.5 70.6 24 0.2 32.4
15:25 1019 30.09 848 25.04 21.8 71.3 23 -0.1 31.8
15:30 1019 30.09 848 25.04 22.6 72.7 23 0.6 33
15:35 1019 30.09 848 25.04 22.6 72.7 22 0.3 32.5
15:40 1019 30.09 848 25.04 21.3 70.4 24 0.3 32.6
15:45 1019 30.09 848 25.04 22.2 72 23 0.1 32.2
15:50 1019 30.09 848 25.04 21.9 71.5 24 0.4 32.7
15:55 1019 30.09 848 25.04 22.1 71.8 23 0.2 32.4
16:00 1019 30.09 848 25.04 22.3 72.1 22 -0.1 31.8
16:05 1019 30.09 848 25.04 22.5 72.5 23 0.4 32.7
16:10 1019 30.09 848 25.04 22.5 72.5 22 -0.2 31.7
16:15 1019 30.09 848 25.04 23 73.3 22 0.1 32.3
16:20 1019 30.09 848 25.04 23.1 73.5 22 0.4 32.6
16:25 1019 30.09 848 25.04 23.1 73.5 21 -0 32
16:30 1019 30.09 848 25.04 22.4 72.4 22 -0.1 31.9
16:35 1019 30.09 848 25.04 22.8 73 22 -0 31.9
16:40 1019 30.09 848 25.04 23 73.5 22 0.3 32.6
16:45 1019 30.09 848 25.04 23.1 73.6 21 -0.1 31.8
16:50 1019 30.09 848 25.04 22.8 73.1 22 0.3 32.5
16:55 1019 30.09 848 25.04 23 73.4 23 0.7 33.2
17:00 1019 30.09 848 25.04 22.7 72.9 22 0.1 32.1
17:05 1019 30.09 848 25.04 21.9 71.4 22 -0.8 30.6
17:10 1019 30.09 848 25.04 21.8 71.2 21 -1 30.1
17:15 1019 30.09 848 25.04 22.4 72.2 21 -1 30.2
17:20 1018 30.06 848 25.04 22.2 71.9 22 -0.6 30.9
17:25 1019 30.09 848 25.04 22 71.6 21 -0.9 30.5
17:30 1018 30.06 848 25.04 22.6 72.6 21 -0.6 31
17:35 1018 30.06 848 25.04 22.4 72.4 21 -0.5 31.1
17:40 1018 30.06 848 25.04 22.2 71.9 22 -0.2 31.7
17:45 1018 30.06 848 25.04 22.7 72.8 22 -0.1 31.9
17:50 1018 30.06 848 25.04 22.4 72.3 22 -0.4 31.3
17:55 1018 30.06 848 25.04 22 71.5 22 -0.4 31.2
18:00 1018 30.06 848 25.04 22.2 71.9 22 -0.5 31.1
18:05 1018 30.06 847 25.01 22.4 72.4 21 -0.5 31.1
18:10 1018 30.06 847 25.01 22.7 72.9 21 -0.8 30.5
18:15 1018 30.06 847 25.01 22.6 72.7 21 -0.5 31
18:20 1018 30.06 847 25.01 22.5 72.6 20 -1.4 29.5
18:25 1018 30.06 847 25.01 22.4 72.3 20 -1.4 29.5
18:30 1018 30.06 847 25.01 22.1 71.8 21 -1.2 29.9
18:35 1018 30.06 847 25.01 22.4 72.3 20 -1.2 29.8
18:40 1018 30.06 847 25.01 22.9 73.2 20 -1 30.2
18:45 1018 30.06 847 25.01 22.5 72.5 21 -1 30.3
18:50 1018 30.06 847 25.01 22.6 72.7 21 -0.9 30.4
18:55 1018 30.06 847 25.01 22.2 72 20 -1.6 29.1
19:00 1018 30.06 847 25.01 22.3 72.1 21 -0.9 30.4
19:05 1018 30.06 847 25.01 22.4 72.2 21 -1 30.3
19:10 1018 30.06 847 25.01 22.2 72 21 -0.9 30.3
19:15 1018 30.06 847 25.01 22.3 72.1 21 -1.2 29.9
19:20 1018 30.06 847 25.01 22.3 72.1 21 -1.1 30
19:25 1018 30.06 847 25.01 22.6 72.7 20 -1 30.3
19:30 1018 30.06 847 25.01 22.4 72.3 21 -1.1 30
19:35 1018 30.06 847 25.01 21.8 71.3 20 -1.7 28.9
19:40 1018 30.06 847 25.01 21.3 70.4 21 -1.8 28.8
19:45 1018 30.06 847 25.01 21.5 70.7 21 -1.6 29.1
19:50 1018 30.06 847 25.01 21.7 71 21 -1.3 29.6
19:55 1018 30.06 847 25.01 21.7 71 21 -1.4 29.5
20:00 1018 30.06 848 25.04 21.8 71.2 21 -1.5 29.3
20:05 1018 30.06 848 25.04 21.4 70.6 22 -1 30.2
20:10 1018 30.06 848 25.04 21.4 70.5 23 -0.6 30.9
20:15 1018 30.06 848 25.04 21.2 70.2 22 -1 30.2
20:20 1018 30.06 848 25.04 21 69.8 22 -1.2 29.8
20:25 1018 30.06 848 25.04 20.9 69.7 23 -1 30.3
20:30 1018 30.06 848 25.04 20.9 69.6 23 -1.1 30
20:35 1018 30.06 848 25.04 20.9 69.6 23 -1.1 30
20:40 1018 30.06 848 25.04 20.8 69.4 23 -1.2 29.9
20:45 1018 30.06 848 25.04 20.8 69.4 23 -1.2 29.9
20:50 1018 30.06 848 25.04 20.7 69.2 23 -1.1 30
20:55 1018 30.06 848 25.04 20.5 69 23 -0.9 30.3
21:00 1018 30.06 848 25.04 20.3 68.5 24 -0.9 30.4
21:05 1018 30.06 848 25.04 20 68 28 1 33.8
21:10 1018 30.06 848 25.04 19.6 67.3 27 0.5 32.9
21:15 1018 30.06 848 25.04 19.3 66.8 33 2.8 37.1
21:20 1019 30.09 848 25.04 18.4 65.1 39 4.3 39.7
21:25 1019 30.09 848 25.04 17.7 63.8 41 4.4 39.9
21:30 1019 30.09 848 25.04 17.2 63 45 5.4 41.7
21:35 1019 30.09 848 25.04 16.6 61.8 45 4.8 40.6
21:40 1019 30.09 848 25.04 16 60.7 45 4.2 39.6
21:45 1019 30.09 848 25.04 15.8 60.5 42 3.1 37.6
21:50 1019 30.09 848 25.04 15.9 60.7 39 2.1 35.8
21:55 1019 30.09 848 25.04 16.1 60.9 42 3.1 37.6
22:00 1019 30.09 848 25.04 15.9 60.6 41 2.9 37.3
22:05 1019 30.09 848 25.04 15.8 60.5 42 3.2 37.7
22:10 1019 30.09 848 25.04 16 60.8 43 3.6 38.4
22:15 1019 30.09 848 25.04 16.4 61.5 44 4.2 39.5
22:20 1019 30.09 848 25.04 16.5 61.7 45 4.6 40.2
22:25 1019 30.09 848 25.04 16.5 61.7 45 4.8 40.6
22:30 1019 30.09 848 25.04 16.6 61.9 45 4.8 40.6
22:35 1019 30.09 848 25.04 16.6 61.9 46 5 41
22:40 1019 30.09 848 25.04 16.5 61.7 46 4.9 40.8
22:45 1019 30.09 848 25.04 16.6 61.8 45 4.8 40.6
22:50 1019 30.09 848 25.04 16.6 61.9 46 4.9 40.9
22:55 1019 30.09 848 25.04 16.4 61.4 47 5.1 41.2
23:00 1019 30.09 849 25.07 16.1 61 47 5 41
23:05 1019 30.09 849 25.07 16 60.7 47 4.9 40.7
23:10 1019 30.09 849 25.07 16 60.7 47 4.9 40.8
23:15 1019 30.09 849 25.07 15.9 60.5 48 5 41
23:20 1019 30.09 849 25.07 15.7 60.2 49 5 41
23:25 1019 30.09 849 25.07 15.5 59.8 49 5 41
23:30 1019 30.09 849 25.07 15.3 59.6 49 4.9 40.8
23:35 1019 30.09 849 25.07 15.3 59.5 49 4.9 40.8
23:40 1019 30.09 849 25.07 15.2 59.4 50 4.9 40.8
23:45 1019 30.09 849 25.07 15.1 59.2 50 4.8 40.7
23:50 1019 30.09 849 25.07 15.1 59.2 50 4.9 40.8
23:55 1019 30.09 849 25.07 15 59.1 51 5 41
24:00 1019 30.09 848 25.04 14.9 58.7 51 5 41